sensor_id;sensor_type;location;lat;lon;timestamp;temperature;humidity
54178;DHT22;40085;53.004;6.770;2023-05-07T00:01:33;12.70;99.90
54178;DHT22;40085;53.004;6.770;2023-05-07T00:03:59;12.70;99.90
54178;DHT22;40085;53.004;6.770;2023-05-07T00:06:24;12.70;99.90
54178;DHT22;40085;53.004;6.770;2023-05-07T00:08:52;12.70;99.90
54178;DHT22;40085;53.004;6.770;2023-05-07T00:11:17;12.70;99.90
54178;DHT22;40085;53.004;6.770;2023-05-07T00:13:43;12.50;99.90
54178;DHT22;40085;53.004;6.770;2023-05-07T00:16:08;12.60;99.90
54178;DHT22;40085;53.004;6.770;2023-05-07T00:18:34;12.60;99.90
54178;DHT22;40085;53.004;6.770;2023-05-07T00:20:59;12.60;99.90
54178;DHT22;40085;53.004;6.770;2023-05-07T00:23:25;12.60;99.90
54178;DHT22;40085;53.004;6.770;2023-05-07T00:25:50;12.60;99.90
54178;DHT22;40085;53.004;6.770;2023-05-07T00:28:16;12.60;99.90
54178;DHT22;40085;53.004;6.770;2023-05-07T00:30:42;12.50;99.90
54178;DHT22;40085;53.004;6.770;2023-05-07T00:33:07;12.60;99.90
54178;DHT22;40085;53.004;6.770;2023-05-07T00:35:33;12.50;99.90
54178;DHT22;40085;53.004;6.770;2023-05-07T00:37:58;12.50;99.90
54178;DHT22;40085;53.004;6.770;2023-05-07T00:40:24;12.50;99.90
54178;DHT22;40085;53.004;6.770;2023-05-07T00:42:49;12.50;99.90
54178;DHT22;40085;53.004;6.770;2023-05-07T00:45:16;12.40;99.90
54178;DHT22;40085;53.004;6.770;2023-05-07T00:47:42;12.40;99.90
54178;DHT22;40085;53.004;6.770;2023-05-07T00:50:09;12.40;99.90
54178;DHT22;40085;53.004;6.770;2023-05-07T00:52:37;12.40;99.90
54178;DHT22;40085;53.004;6.770;2023-05-07T00:55:05;12.30;99.90
54178;DHT22;40085;53.004;6.770;2023-05-07T00:57:39;12.30;99.90
54178;DHT22;40085;53.004;6.770;2023-05-07T01:00:07;12.30;99.90
54178;DHT22;40085;53.004;6.770;2023-05-07T01:02:37;12.30;99.90
54178;DHT22;40085;53.004;6.770;2023-05-07T01:05:04;12.30;99.90
54178;DHT22;40085;53.004;6.770;2023-05-07T01:07:32;12.20;99.90
54178;DHT22;40085;53.004;6.770;2023-05-07T01:09:58;13.20;99.90
54178;DHT22;40085;53.004;6.770;2023-05-07T01:12:25;12.80;99.90
54178;DHT22;40085;53.004;6.770;2023-05-07T01:14:51;12.20;99.90
54178;DHT22;40085;53.004;6.770;2023-05-07T01:17:17;12.70;99.90
54178;DHT22;40085;53.004;6.770;2023-05-07T01:19:43;12.10;99.90
54178;DHT22;40085;53.004;6.770;2023-05-07T01:22:10;12.00;99.90
54178;DHT22;40085;53.004;6.770;2023-05-07T01:24:40;12.00;99.90
54178;DHT22;40085;53.004;6.770;2023-05-07T01:27:06;12.60;99.90
54178;DHT22;40085;53.004;6.770;2023-05-07T01:29:32;11.80;99.90
54178;DHT22;40085;53.004;6.770;2023-05-07T01:31:59;11.90;99.90
54178;DHT22;40085;53.004;6.770;2023-05-07T01:34:27;11.90;99.90
54178;DHT22;40085;53.004;6.770;2023-05-07T01:36:54;13.20;99.90
54178;DHT22;40085;53.004;6.770;2023-05-07T01:39:22;11.90;99.90
54178;DHT22;40085;53.004;6.770;2023-05-07T01:41:49;11.90;99.90
54178;DHT22;40085;53.004;6.770;2023-05-07T01:44:15;11.80;99.90
54178;DHT22;40085;53.004;6.770;2023-05-07T01:46:42;11.80;99.90
54178;DHT22;40085;53.004;6.770;2023-05-07T01:49:08;11.70;99.90
54178;DHT22;40085;53.004;6.770;2023-05-07T01:51:34;12.80;99.90
54178;DHT22;40085;53.004;6.770;2023-05-07T01:53:59;11.70;99.90
54178;DHT22;40085;53.004;6.770;2023-05-07T01:56:25;11.70;99.90
54178;DHT22;40085;53.004;6.770;2023-05-07T01:58:51;11.60;99.90
54178;DHT22;40085;53.004;6.770;2023-05-07T02:01:17;11.60;99.90
54178;DHT22;40085;53.004;6.770;2023-05-07T02:03:43;11.60;99.90
54178;DHT22;40085;53.004;6.770;2023-05-07T02:06:09;11.60;99.90
54178;DHT22;40085;53.004;6.770;2023-05-07T02:08:35;11.60;99.90
54178;DHT22;40085;53.004;6.770;2023-05-07T02:11:01;12.00;99.90
54178;DHT22;40085;53.004;6.770;2023-05-07T02:13:29;11.50;99.90
54178;DHT22;40085;53.004;6.770;2023-05-07T02:15:55;11.50;99.90
54178;DHT22;40085;53.004;6.770;2023-05-07T02:18:20;11.50;99.90
54178;DHT22;40085;53.004;6.770;2023-05-07T02:20:46;11.50;99.90
54178;DHT22;40085;53.004;6.770;2023-05-07T02:23:11;11.40;99.90
54178;DHT22;40085;53.004;6.770;2023-05-07T02:25:37;11.40;99.90
54178;DHT22;40085;53.004;6.770;2023-05-07T02:28:03;11.30;99.90
54178;DHT22;40085;53.004;6.770;2023-05-07T02:30:28;11.30;99.90
54178;DHT22;40085;53.004;6.770;2023-05-07T02:32:54;11.30;99.90
54178;DHT22;40085;53.004;6.770;2023-05-07T02:35:20;11.30;99.90
54178;DHT22;40085;53.004;6.770;2023-05-07T02:37:45;11.30;99.90
54178;DHT22;40085;53.004;6.770;2023-05-07T02:40:11;11.20;99.90
54178;DHT22;40085;53.004;6.770;2023-05-07T02:42:37;11.20;99.90
54178;DHT22;40085;53.004;6.770;2023-05-07T02:45:03;11.20;99.90
54178;DHT22;40085;53.004;6.770;2023-05-07T02:47:29;11.20;99.90
54178;DHT22;40085;53.004;6.770;2023-05-07T02:49:55;11.40;99.90
54178;DHT22;40085;53.004;6.770;2023-05-07T02:52:21;11.20;99.90
54178;DHT22;40085;53.004;6.770;2023-05-07T02:54:47;12.00;99.90
54178;DHT22;40085;53.004;6.770;2023-05-07T02:57:12;11.20;99.90
54178;DHT22;40085;53.004;6.770;2023-05-07T02:59:38;11.20;99.90
54178;DHT22;40085;53.004;6.770;2023-05-07T03:02:03;11.20;99.90
54178;DHT22;40085;53.004;6.770;2023-05-07T03:04:29;11.20;99.90
54178;DHT22;40085;53.004;6.770;2023-05-07T03:06:55;11.20;99.90
54178;DHT22;40085;53.004;6.770;2023-05-07T03:09:20;11.20;99.90
54178;DHT22;40085;53.004;6.770;2023-05-07T03:11:46;11.20;99.90
54178;DHT22;40085;53.004;6.770;2023-05-07T03:14:11;11.20;99.90
54178;DHT22;40085;53.004;6.770;2023-05-07T03:16:37;11.20;99.90
54178;DHT22;40085;53.004;6.770;2023-05-07T03:19:03;11.10;99.90
54178;DHT22;40085;53.004;6.770;2023-05-07T03:21:29;11.10;99.90
54178;DHT22;40085;53.004;6.770;2023-05-07T03:23:56;11.10;99.90
54178;DHT22;40085;53.004;6.770;2023-05-07T03:26:21;11.10;99.90
54178;DHT22;40085;53.004;6.770;2023-05-07T03:28:47;11.10;99.90
54178;DHT22;40085;53.004;6.770;2023-05-07T03:31:13;11.00;99.90
54178;DHT22;40085;53.004;6.770;2023-05-07T03:33:55;11.00;99.90
54178;DHT22;40085;53.004;6.770;2023-05-07T03:36:22;11.10;99.90
54178;DHT22;40085;53.004;6.770;2023-05-07T03:38:48;11.00;99.90
54178;DHT22;40085;53.004;6.770;2023-05-07T03:41:14;11.00;99.90
54178;DHT22;40085;53.004;6.770;2023-05-07T03:43:39;11.00;99.90
54178;DHT22;40085;53.004;6.770;2023-05-07T03:46:05;11.00;99.90
54178;DHT22;40085;53.004;6.770;2023-05-07T03:48:31;11.00;99.90
54178;DHT22;40085;53.004;6.770;2023-05-07T03:50:57;11.00;99.90
54178;DHT22;40085;53.004;6.770;2023-05-07T03:53:23;11.00;99.90
54178;DHT22;40085;53.004;6.770;2023-05-07T03:55:49;11.00;99.90
54178;DHT22;40085;53.004;6.770;2023-05-07T03:58:15;11.00;99.90
54178;DHT22;40085;53.004;6.770;2023-05-07T04:00:41;11.00;99.90
54178;DHT22;40085;53.004;6.770;2023-05-07T04:03:06;11.00;99.90
54178;DHT22;40085;53.004;6.770;2023-05-07T04:05:32;10.90;99.90
54178;DHT22;40085;53.004;6.770;2023-05-07T04:07:58;11.20;99.90
54178;DHT22;40085;53.004;6.770;2023-05-07T04:10:24;11.00;99.90
54178;DHT22;40085;53.004;6.770;2023-05-07T04:12:50;11.00;99.90
54178;DHT22;40085;53.004;6.770;2023-05-07T04:15:16;10.90;99.90
54178;DHT22;40085;53.004;6.770;2023-05-07T04:17:41;10.90;99.90
54178;DHT22;40085;53.004;6.770;2023-05-07T04:20:13;11.00;99.90
54178;DHT22;40085;53.004;6.770;2023-05-07T04:22:39;11.00;99.90
54178;DHT22;40085;53.004;6.770;2023-05-07T04:25:05;10.90;99.90
54178;DHT22;40085;53.004;6.770;2023-05-07T04:27:30;10.90;99.90
54178;DHT22;40085;53.004;6.770;2023-05-07T04:29:57;10.90;99.90
54178;DHT22;40085;53.004;6.770;2023-05-07T04:32:23;10.90;99.90
54178;DHT22;40085;53.004;6.770;2023-05-07T04:34:50;11.40;99.90
54178;DHT22;40085;53.004;6.770;2023-05-07T04:37:16;10.90;99.90
54178;DHT22;40085;53.004;6.770;2023-05-07T04:39:41;10.90;99.90
54178;DHT22;40085;53.004;6.770;2023-05-07T04:42:07;10.90;99.90
54178;DHT22;40085;53.004;6.770;2023-05-07T04:44:34;10.90;99.90
54178;DHT22;40085;53.004;6.770;2023-05-07T04:47:00;10.90;99.90
54178;DHT22;40085;53.004;6.770;2023-05-07T04:49:26;10.90;99.90
54178;DHT22;40085;53.004;6.770;2023-05-07T04:51:52;10.90;99.90
54178;DHT22;40085;53.004;6.770;2023-05-07T04:54:17;10.80;99.90
54178;DHT22;40085;53.004;6.770;2023-05-07T04:56:43;11.00;99.90
54178;DHT22;40085;53.004;6.770;2023-05-07T04:59:08;11.00;99.90
54178;DHT22;40085;53.004;6.770;2023-05-07T05:01:34;11.00;99.90
54178;DHT22;40085;53.004;6.770;2023-05-07T05:04:00;11.40;99.90
54178;DHT22;40085;53.004;6.770;2023-05-07T05:06:26;11.00;99.90
54178;DHT22;40085;53.004;6.770;2023-05-07T05:08:51;11.00;99.90
54178;DHT22;40085;53.004;6.770;2023-05-07T05:11:17;11.00;99.90
54178;DHT22;40085;53.004;6.770;2023-05-07T05:13:43;11.30;99.90
54178;DHT22;40085;53.004;6.770;2023-05-07T05:16:08;11.10;99.90
54178;DHT22;40085;53.004;6.770;2023-05-07T05:18:34;11.00;99.90
54178;DHT22;40085;53.004;6.770;2023-05-07T05:21:00;11.00;99.90
54178;DHT22;40085;53.004;6.770;2023-05-07T05:23:27;11.00;99.90
54178;DHT22;40085;53.004;6.770;2023-05-07T05:25:56;11.00;99.90
54178;DHT22;40085;53.004;6.770;2023-05-07T05:28:23;11.30;99.90
54178;DHT22;40085;53.004;6.770;2023-05-07T05:30:49;11.00;99.90
54178;DHT22;40085;53.004;6.770;2023-05-07T05:33:14;12.30;99.90
54178;DHT22;40085;53.004;6.770;2023-05-07T05:35:40;11.10;99.90
54178;DHT22;40085;53.004;6.770;2023-05-07T05:38:06;11.10;99.90
54178;DHT22;40085;53.004;6.770;2023-05-07T05:40:31;11.10;99.90
54178;DHT22;40085;53.004;6.770;2023-05-07T05:42:57;11.10;99.90
54178;DHT22;40085;53.004;6.770;2023-05-07T05:45:23;11.10;99.90
54178;DHT22;40085;53.004;6.770;2023-05-07T05:47:48;11.10;99.90
54178;DHT22;40085;53.004;6.770;2023-05-07T05:50:14;11.10;99.90
54178;DHT22;40085;53.004;6.770;2023-05-07T05:52:40;11.20;99.90
54178;DHT22;40085;53.004;6.770;2023-05-07T05:55:06;11.20;99.90
54178;DHT22;40085;53.004;6.770;2023-05-07T05:57:32;11.20;99.90
54178;DHT22;40085;53.004;6.770;2023-05-07T05:59:57;11.20;99.90
54178;DHT22;40085;53.004;6.770;2023-05-07T06:02:23;11.00;99.90
54178;DHT22;40085;53.004;6.770;2023-05-07T06:04:49;11.20;99.90
54178;DHT22;40085;53.004;6.770;2023-05-07T06:07:14;11.30;99.90
54178;DHT22;40085;53.004;6.770;2023-05-07T06:09:40;11.10;99.90
54178;DHT22;40085;53.004;6.770;2023-05-07T06:12:06;11.40;99.90
54178;DHT22;40085;53.004;6.770;2023-05-07T06:14:31;11.40;99.90
54178;DHT22;40085;53.004;6.770;2023-05-07T06:16:57;11.40;99.90
54178;DHT22;40085;53.004;6.770;2023-05-07T06:19:23;11.50;99.90
54178;DHT22;40085;53.004;6.770;2023-05-07T06:21:49;11.40;99.90
54178;DHT22;40085;53.004;6.770;2023-05-07T06:24:15;11.50;99.90
54178;DHT22;40085;53.004;6.770;2023-05-07T06:26:41;11.50;99.90
54178;DHT22;40085;53.004;6.770;2023-05-07T06:29:06;11.50;99.90
54178;DHT22;40085;53.004;6.770;2023-05-07T06:31:32;11.50;99.90
54178;DHT22;40085;53.004;6.770;2023-05-07T06:33:57;11.40;99.90
54178;DHT22;40085;53.004;6.770;2023-05-07T06:36:24;11.90;99.90
54178;DHT22;40085;53.004;6.770;2023-05-07T06:38:50;11.40;99.90
54178;DHT22;40085;53.004;6.770;2023-05-07T06:41:15;11.00;99.90
54178;DHT22;40085;53.004;6.770;2023-05-07T06:43:41;11.40;99.90
54178;DHT22;40085;53.004;6.770;2023-05-07T06:46:06;12.10;99.90
54178;DHT22;40085;53.004;6.770;2023-05-07T06:48:32;11.40;99.90
54178;DHT22;40085;53.004;6.770;2023-05-07T06:50:58;11.40;99.90
54178;DHT22;40085;53.004;6.770;2023-05-07T06:53:24;11.40;99.90
54178;DHT22;40085;53.004;6.770;2023-05-07T06:55:50;11.30;99.90
54178;DHT22;40085;53.004;6.770;2023-05-07T06:58:15;11.90;99.90
54178;DHT22;40085;53.004;6.770;2023-05-07T07:00:41;11.40;99.90
54178;DHT22;40085;53.004;6.770;2023-05-07T07:03:07;11.40;99.90
54178;DHT22;40085;53.004;6.770;2023-05-07T07:05:32;11.40;99.90
54178;DHT22;40085;53.004;6.770;2023-05-07T07:07:58;11.50;99.90
54178;DHT22;40085;53.004;6.770;2023-05-07T07:10:24;12.00;99.90
54178;DHT22;40085;53.004;6.770;2023-05-07T07:12:50;11.70;99.90
54178;DHT22;40085;53.004;6.770;2023-05-07T07:15:16;11.70;99.90
54178;DHT22;40085;53.004;6.770;2023-05-07T07:17:41;11.70;99.90
54178;DHT22;40085;53.004;6.770;2023-05-07T07:20:08;11.80;99.90
54178;DHT22;40085;53.004;6.770;2023-05-07T07:22:33;11.70;99.90
54178;DHT22;40085;53.004;6.770;2023-05-07T07:24:59;12.10;99.90
54178;DHT22;40085;53.004;6.770;2023-05-07T07:27:25;11.80;99.90
54178;DHT22;40085;53.004;6.770;2023-05-07T07:29:51;11.90;99.90
54178;DHT22;40085;53.004;6.770;2023-05-07T07:32:16;12.00;99.90
54178;DHT22;40085;53.004;6.770;2023-05-07T07:34:42;12.10;99.90
54178;DHT22;40085;53.004;6.770;2023-05-07T07:37:07;12.10;99.90
54178;DHT22;40085;53.004;6.770;2023-05-07T07:39:33;12.10;99.90
54178;DHT22;40085;53.004;6.770;2023-05-07T07:41:59;12.10;99.90
54178;DHT22;40085;53.004;6.770;2023-05-07T07:44:25;12.10;99.90
54178;DHT22;40085;53.004;6.770;2023-05-07T07:46:51;12.10;99.90
54178;DHT22;40085;53.004;6.770;2023-05-07T07:49:17;12.10;99.90
54178;DHT22;40085;53.004;6.770;2023-05-07T07:51:43;12.00;99.90
54178;DHT22;40085;53.004;6.770;2023-05-07T07:54:08;12.10;99.90
54178;DHT22;40085;53.004;6.770;2023-05-07T07:56:34;12.10;99.90
54178;DHT22;40085;53.004;6.770;2023-05-07T07:59:00;12.10;99.90
54178;DHT22;40085;53.004;6.770;2023-05-07T08:01:26;12.20;99.90
54178;DHT22;40085;53.004;6.770;2023-05-07T08:03:52;12.30;99.90
54178;DHT22;40085;53.004;6.770;2023-05-07T08:06:18;12.90;99.90
54178;DHT22;40085;53.004;6.770;2023-05-07T08:08:44;12.40;99.90
54178;DHT22;40085;53.004;6.770;2023-05-07T08:11:10;12.40;97.40
54178;DHT22;40085;53.004;6.770;2023-05-07T08:13:36;12.40;95.80
54178;DHT22;40085;53.004;6.770;2023-05-07T08:16:02;12.40;91.80
54178;DHT22;40085;53.004;6.770;2023-05-07T08:18:27;12.50;92.00
54178;DHT22;40085;53.004;6.770;2023-05-07T08:20:54;12.60;91.90
54178;DHT22;40085;53.004;6.770;2023-05-07T08:23:20;13.40;86.50
54178;DHT22;40085;53.004;6.770;2023-05-07T08:25:46;12.80;88.50
54178;DHT22;40085;53.004;6.770;2023-05-07T08:28:12;12.80;83.30
54178;DHT22;40085;53.004;6.770;2023-05-07T08:30:37;12.80;76.50
54178;DHT22;40085;53.004;6.770;2023-05-07T08:33:03;12.70;38.10
54178;DHT22;40085;53.004;6.770;2023-05-07T08:35:28;12.80;33.90
54178;DHT22;40085;53.004;6.770;2023-05-07T08:37:54;12.80;11.60
54178;DHT22;40085;53.004;6.770;2023-05-07T08:40:22;13.00;8.90
54178;DHT22;40085;53.004;6.770;2023-05-07T08:42:55;12.90;3.00
54178;DHT22;40085;53.004;6.770;2023-05-07T08:45:22;12.90;2.90
54178;DHT22;40085;53.004;6.770;2023-05-07T08:47:51;13.00;28.20
54178;DHT22;40085;53.004;6.770;2023-05-07T08:50:18;13.20;21.20
54178;DHT22;40085;53.004;6.770;2023-05-07T08:52:45;13.30;1.00
54178;DHT22;40085;53.004;6.770;2023-05-07T08:55:11;13.30;1.00
54178;DHT22;40085;53.004;6.770;2023-05-07T08:57:38;13.40;1.00
54178;DHT22;40085;53.004;6.770;2023-05-07T09:00:04;13.50;1.00
54178;DHT22;40085;53.004;6.770;2023-05-07T09:02:32;13.60;1.00
54178;DHT22;40085;53.004;6.770;2023-05-07T09:04:58;13.60;99.90
54178;DHT22;40085;53.004;6.770;2023-05-07T09:07:24;13.60;85.20
54178;DHT22;40085;53.004;6.770;2023-05-07T09:09:50;13.60;99.90
54178;DHT22;40085;53.004;6.770;2023-05-07T09:12:17;13.40;99.90
54178;DHT22;40085;53.004;6.770;2023-05-07T09:14:44;13.70;99.90
54178;DHT22;40085;53.004;6.770;2023-05-07T09:17:09;13.90;96.90
54178;DHT22;40085;53.004;6.770;2023-05-07T09:19:35;14.00;99.90
54178;DHT22;40085;53.004;6.770;2023-05-07T09:22:02;14.20;99.90
54178;DHT22;40085;53.004;6.770;2023-05-07T09:24:28;13.90;1.00
54178;DHT22;40085;53.004;6.770;2023-05-07T09:26:59;14.20;99.90
54178;DHT22;40085;53.004;6.770;2023-05-07T09:29:26;14.20;99.90
54178;DHT22;40085;53.004;6.770;2023-05-07T09:31:54;14.10;99.90
54178;DHT22;40085;53.004;6.770;2023-05-07T09:34:20;14.10;99.90
54178;DHT22;40085;53.004;6.770;2023-05-07T09:36:46;14.20;99.90
54178;DHT22;40085;53.004;6.770;2023-05-07T09:39:13;14.20;99.90
54178;DHT22;40085;53.004;6.770;2023-05-07T09:41:48;14.60;99.90
54178;DHT22;40085;53.004;6.770;2023-05-07T09:44:14;14.60;96.60
54178;DHT22;40085;53.004;6.770;2023-05-07T09:46:42;14.60;99.90
54178;DHT22;40085;53.004;6.770;2023-05-07T09:49:13;14.60;1.00
54178;DHT22;40085;53.004;6.770;2023-05-07T09:51:45;14.70;1.00
54178;DHT22;40085;53.004;6.770;2023-05-07T09:54:13;14.90;99.90
54178;DHT22;40085;53.004;6.770;2023-05-07T09:56:39;14.80;99.90
54178;DHT22;40085;53.004;6.770;2023-05-07T09:59:08;14.80;1.00
54178;DHT22;40085;53.004;6.770;2023-05-07T10:01:36;14.90;99.90
54178;DHT22;40085;53.004;6.770;2023-05-07T10:04:02;14.90;99.90
54178;DHT22;40085;53.004;6.770;2023-05-07T10:06:30;15.00;99.90
54178;DHT22;40085;53.004;6.770;2023-05-07T10:08:56;15.10;57.60
54178;DHT22;40085;53.004;6.770;2023-05-07T10:11:22;14.90;99.90
54178;DHT22;40085;53.004;6.770;2023-05-07T10:13:48;15.40;99.90
54178;DHT22;40085;53.004;6.770;2023-05-07T10:16:14;15.40;99.90
54178;DHT22;40085;53.004;6.770;2023-05-07T10:18:40;15.50;1.00
54178;DHT22;40085;53.004;6.770;2023-05-07T10:21:08;15.50;99.90
54178;DHT22;40085;53.004;6.770;2023-05-07T10:23:36;15.50;99.90
54178;DHT22;40085;53.004;6.770;2023-05-07T10:26:06;15.70;92.30
54178;DHT22;40085;53.004;6.770;2023-05-07T10:28:36;15.70;1.00
54178;DHT22;40085;53.004;6.770;2023-05-07T10:31:46;15.90;1.00
54178;DHT22;40085;53.004;6.770;2023-05-07T10:34:14;16.10;1.00
54178;DHT22;40085;53.004;6.770;2023-05-07T10:36:41;16.20;99.90
54178;DHT22;40085;53.004;6.770;2023-05-07T10:39:07;16.90;99.90
54178;DHT22;40085;53.004;6.770;2023-05-07T10:41:33;16.50;99.90
54178;DHT22;40085;53.004;6.770;2023-05-07T10:43:59;16.60;99.90
54178;DHT22;40085;53.004;6.770;2023-05-07T10:46:26;16.90;99.90
54178;DHT22;40085;53.004;6.770;2023-05-07T10:49:12;16.70;99.90
54178;DHT22;40085;53.004;6.770;2023-05-07T10:51:38;16.80;99.90
54178;DHT22;40085;53.004;6.770;2023-05-07T10:56:43;16.90;99.90
54178;DHT22;40085;53.004;6.770;2023-05-07T11:04:18;16.80;50.70
54178;DHT22;40085;53.004;6.770;2023-05-07T11:15:12;16.90;1.00
54178;DHT22;40085;53.004;6.770;2023-05-07T11:18:04;17.10;1.00
54178;DHT22;40085;53.004;6.770;2023-05-07T11:20:54;16.90;1.00
54178;DHT22;40085;53.004;6.770;2023-05-07T11:26:04;17.00;99.90
54178;DHT22;40085;53.004;6.770;2023-05-07T11:28:31;17.10;1.00
54178;DHT22;40085;53.004;6.770;2023-05-07T11:31:00;16.70;1.00
54178;DHT22;40085;53.004;6.770;2023-05-07T11:33:26;16.90;99.90
54178;DHT22;40085;53.004;6.770;2023-05-07T11:35:53;16.80;99.90
54178;DHT22;40085;53.004;6.770;2023-05-07T11:38:19;16.80;99.90
54178;DHT22;40085;53.004;6.770;2023-05-07T11:40:58;16.70;99.90
54178;DHT22;40085;53.004;6.770;2023-05-07T11:43:26;17.20;99.90
54178;DHT22;40085;53.004;6.770;2023-05-07T11:45:52;17.30;1.00
54178;DHT22;40085;53.004;6.770;2023-05-07T11:48:18;16.80;1.00
54178;DHT22;40085;53.004;6.770;2023-05-07T11:51:01;16.50;1.00
54178;DHT22;40085;53.004;6.770;2023-05-07T11:53:28;16.90;99.90
54178;DHT22;40085;53.004;6.770;2023-05-07T11:56:00;17.00;1.00
54178;DHT22;40085;53.004;6.770;2023-05-07T11:58:26;17.10;99.90
54178;DHT22;40085;53.004;6.770;2023-05-07T12:00:53;17.80;99.90
54178;DHT22;40085;53.004;6.770;2023-05-07T12:03:19;17.30;1.00
54178;DHT22;40085;53.004;6.770;2023-05-07T12:05:46;17.30;99.90
54178;DHT22;40085;53.004;6.770;2023-05-07T12:08:18;17.50;1.00
54178;DHT22;40085;53.004;6.770;2023-05-07T12:10:44;17.50;99.90
54178;DHT22;40085;53.004;6.770;2023-05-07T12:13:21;17.50;99.90
54178;DHT22;40085;53.004;6.770;2023-05-07T12:15:54;17.40;99.90
54178;DHT22;40085;53.004;6.770;2023-05-07T12:18:21;17.50;99.90
54178;DHT22;40085;53.004;6.770;2023-05-07T12:20:47;18.20;99.90
54178;DHT22;40085;53.004;6.770;2023-05-07T12:23:14;17.60;99.90
54178;DHT22;40085;53.004;6.770;2023-05-07T12:25:41;17.70;99.90
54178;DHT22;40085;53.004;6.770;2023-05-07T12:28:13;17.80;99.90
54178;DHT22;40085;53.004;6.770;2023-05-07T12:30:42;17.70;99.90
54178;DHT22;40085;53.004;6.770;2023-05-07T12:35:41;18.40;99.90
54178;DHT22;40085;53.004;6.770;2023-05-07T12:38:12;18.40;99.90
54178;DHT22;40085;53.004;6.770;2023-05-07T12:40:45;19.10;1.00
54178;DHT22;40085;53.004;6.770;2023-05-07T12:43:30;18.90;22.40
54178;DHT22;40085;53.004;6.770;2023-05-07T12:45:57;19.30;99.90
54178;DHT22;40085;53.004;6.770;2023-05-07T12:48:25;19.10;99.90
54178;DHT22;40085;53.004;6.770;2023-05-07T12:50:56;18.70;99.90
54178;DHT22;40085;53.004;6.770;2023-05-07T12:53:24;18.70;99.90
54178;DHT22;40085;53.004;6.770;2023-05-07T12:55:54;19.00;99.90
54178;DHT22;40085;53.004;6.770;2023-05-07T12:58:24;19.50;99.90
54178;DHT22;40085;53.004;6.770;2023-05-07T13:00:51;19.30;99.90
54178;DHT22;40085;53.004;6.770;2023-05-07T13:03:25;19.40;99.90
54178;DHT22;40085;53.004;6.770;2023-05-07T13:05:51;19.10;99.90
54178;DHT22;40085;53.004;6.770;2023-05-07T13:08:32;19.80;99.90
54178;DHT22;40085;53.004;6.770;2023-05-07T13:10:59;19.70;99.90
54178;DHT22;40085;53.004;6.770;2023-05-07T13:13:28;19.50;99.90
54178;DHT22;40085;53.004;6.770;2023-05-07T13:18:19;19.20;99.90
54178;DHT22;40085;53.004;6.770;2023-05-07T13:20:45;20.10;99.90
54178;DHT22;40085;53.004;6.770;2023-05-07T13:23:11;19.50;99.90
54178;DHT22;40085;53.004;6.770;2023-05-07T13:25:36;19.30;99.90
54178;DHT22;40085;53.004;6.770;2023-05-07T13:28:02;19.30;99.90
54178;DHT22;40085;53.004;6.770;2023-05-07T13:30:28;19.30;99.90
54178;DHT22;40085;53.004;6.770;2023-05-07T13:32:55;19.50;99.90
54178;DHT22;40085;53.004;6.770;2023-05-07T13:35:21;19.90;99.90
54178;DHT22;40085;53.004;6.770;2023-05-07T13:37:47;19.90;99.90
54178;DHT22;40085;53.004;6.770;2023-05-07T13:40:14;19.50;99.90
54178;DHT22;40085;53.004;6.770;2023-05-07T13:42:40;19.40;99.90
54178;DHT22;40085;53.004;6.770;2023-05-07T13:45:07;19.70;99.90
54178;DHT22;40085;53.004;6.770;2023-05-07T13:47:32;19.20;99.90
54178;DHT22;40085;53.004;6.770;2023-05-07T13:49:58;19.70;99.90
54178;DHT22;40085;53.004;6.770;2023-05-07T13:52:24;19.60;99.90
54178;DHT22;40085;53.004;6.770;2023-05-07T13:54:49;19.30;99.90
54178;DHT22;40085;53.004;6.770;2023-05-07T13:57:17;19.40;99.90
54178;DHT22;40085;53.004;6.770;2023-05-07T13:59:43;19.80;99.90
54178;DHT22;40085;53.004;6.770;2023-05-07T14:02:08;20.10;99.90
54178;DHT22;40085;53.004;6.770;2023-05-07T14:04:34;19.60;99.90
54178;DHT22;40085;53.004;6.770;2023-05-07T14:09:26;19.80;99.90
54178;DHT22;40085;53.004;6.770;2023-05-07T14:11:51;20.10;99.90
54178;DHT22;40085;53.004;6.770;2023-05-07T14:14:18;20.10;99.90
54178;DHT22;40085;53.004;6.770;2023-05-07T14:16:44;20.20;99.90
54178;DHT22;40085;53.004;6.770;2023-05-07T14:19:11;20.30;99.90
54178;DHT22;40085;53.004;6.770;2023-05-07T14:21:36;21.20;99.90
54178;DHT22;40085;53.004;6.770;2023-05-07T14:24:02;20.40;99.90
54178;DHT22;40085;53.004;6.770;2023-05-07T14:26:28;20.30;99.90
54178;DHT22;40085;53.004;6.770;2023-05-07T14:28:54;20.30;99.90
54178;DHT22;40085;53.004;6.770;2023-05-07T14:31:22;20.10;99.90
54178;DHT22;40085;53.004;6.770;2023-05-07T14:33:48;20.50;99.90
54178;DHT22;40085;53.004;6.770;2023-05-07T14:36:15;19.90;99.90
54178;DHT22;40085;53.004;6.770;2023-05-07T14:38:41;19.90;99.90
54178;DHT22;40085;53.004;6.770;2023-05-07T14:41:06;19.90;99.90
54178;DHT22;40085;53.004;6.770;2023-05-07T14:43:32;19.70;99.90
54178;DHT22;40085;53.004;6.770;2023-05-07T14:45:57;19.90;99.90
54178;DHT22;40085;53.004;6.770;2023-05-07T14:48:23;19.50;99.90
54178;DHT22;40085;53.004;6.770;2023-05-07T14:50:49;19.40;99.90
54178;DHT22;40085;53.004;6.770;2023-05-07T14:53:15;19.10;99.90
54178;DHT22;40085;53.004;6.770;2023-05-07T14:55:40;19.40;99.90
54178;DHT22;40085;53.004;6.770;2023-05-07T14:58:06;19.40;99.90
54178;DHT22;40085;53.004;6.770;2023-05-07T15:00:31;19.30;99.90
54178;DHT22;40085;53.004;6.770;2023-05-07T15:03:05;19.90;99.90
54178;DHT22;40085;53.004;6.770;2023-05-07T15:05:32;19.20;99.90
54178;DHT22;40085;53.004;6.770;2023-05-07T15:07:58;19.70;99.90
54178;DHT22;40085;53.004;6.770;2023-05-07T15:10:23;18.80;99.90
54178;DHT22;40085;53.004;6.770;2023-05-07T15:12:49;18.70;99.90
54178;DHT22;40085;53.004;6.770;2023-05-07T15:15:15;18.70;99.90
54178;DHT22;40085;53.004;6.770;2023-05-07T15:17:40;18.90;99.90
54178;DHT22;40085;53.004;6.770;2023-05-07T15:20:06;18.70;99.90
54178;DHT22;40085;53.004;6.770;2023-05-07T15:22:32;18.60;99.90
54178;DHT22;40085;53.004;6.770;2023-05-07T15:24:58;18.50;99.90
54178;DHT22;40085;53.004;6.770;2023-05-07T15:27:24;18.40;99.90
54178;DHT22;40085;53.004;6.770;2023-05-07T15:29:50;18.40;99.90
54178;DHT22;40085;53.004;6.770;2023-05-07T15:32:16;18.40;99.90
54178;DHT22;40085;53.004;6.770;2023-05-07T15:34:41;18.70;99.90
54178;DHT22;40085;53.004;6.770;2023-05-07T15:37:07;18.50;99.90
54178;DHT22;40085;53.004;6.770;2023-05-07T15:39:32;18.30;99.90
54178;DHT22;40085;53.004;6.770;2023-05-07T15:41:58;18.30;99.90
54178;DHT22;40085;53.004;6.770;2023-05-07T15:44:24;18.40;99.90
54178;DHT22;40085;53.004;6.770;2023-05-07T15:46:54;18.30;99.90
54178;DHT22;40085;53.004;6.770;2023-05-07T15:49:19;18.30;99.90
54178;DHT22;40085;53.004;6.770;2023-05-07T15:51:45;18.50;99.90
54178;DHT22;40085;53.004;6.770;2023-05-07T15:54:11;19.20;99.90
54178;DHT22;40085;53.004;6.770;2023-05-07T15:56:36;19.10;99.90